createdAt,value
2023-11-15T00:00:12.261Z,9.51
2023-11-15T00:02:41.113Z,9.58
2023-11-15T00:05:08.624Z,9.48
2023-11-15T00:07:35.892Z,9.35
2023-11-15T00:10:05.145Z,9.47
2023-11-15T00:12:33.473Z,9.45
2023-11-15T00:15:01.191Z,9.50
2023-11-15T00:17:32.155Z,9.45
2023-11-15T00:20:05.006Z,9.47
2023-11-15T00:22:32.924Z,9.43
2023-11-15T00:25:00.303Z,9.28
2023-11-15T00:27:30.866Z,9.22
2023-11-15T00:29:58.535Z,9.24
2023-11-15T00:32:25.635Z,9.20
2023-11-15T00:34:52.772Z,9.22
2023-11-15T00:37:20.300Z,9.17
2023-11-15T00:39:47.551Z,9.11
2023-11-15T00:42:17.614Z,8.96
2023-11-15T00:44:45.754Z,8.95
2023-11-15T00:47:14.779Z,8.90
2023-11-15T00:49:45.152Z,8.89
2023-11-15T00:52:15.146Z,8.97
2023-11-15T00:54:42.878Z,8.88
2023-11-15T00:57:09.972Z,8.87
2023-11-15T00:59:45.245Z,8.83
2023-11-15T01:02:13.049Z,8.84
2023-11-15T01:04:42.704Z,8.86
2023-11-15T01:07:09.747Z,8.83
2023-11-15T01:09:37.488Z,8.79
2023-11-15T01:12:08.496Z,8.73
2023-11-15T01:14:35.996Z,8.72
2023-11-15T01:17:04.270Z,8.67
2023-11-15T01:19:31.865Z,8.68
2023-11-15T01:21:59.620Z,8.65
2023-11-15T01:24:27.178Z,8.60
2023-11-15T01:26:56.783Z,8.67
2023-11-15T01:29:24.612Z,8.71
2023-11-15T01:31:51.994Z,8.66
2023-11-15T01:34:24.780Z,8.59
2023-11-15T01:36:52.392Z,8.48
2023-11-15T01:39:22.047Z,8.40
2023-11-15T01:41:50.975Z,8.42
2023-11-15T01:44:20.711Z,8.42
2023-11-15T01:46:50.783Z,8.46
2023-11-15T01:49:21.993Z,8.56
2023-11-15T01:51:55.530Z,8.49
2023-11-15T01:54:24.116Z,8.36
2023-11-15T01:56:51.986Z,8.26
2023-11-15T01:59:19.796Z,8.22
2023-11-15T02:01:52.328Z,8.18
2023-11-15T02:04:20.649Z,8.05
2023-11-15T02:06:48.051Z,8.14
2023-11-15T02:09:18.544Z,8.20
2023-11-15T02:11:45.920Z,8.06
2023-11-15T02:14:13.133Z,7.98
2023-11-15T02:16:45.925Z,7.94
2023-11-15T02:19:17.016Z,7.82
2023-11-15T02:21:44.476Z,7.77
2023-11-15T02:24:11.860Z,7.79
2023-11-15T02:26:47.348Z,7.79
2023-11-15T02:29:14.754Z,7.88
2023-11-15T02:31:42.356Z,7.85
2023-11-15T02:34:10.342Z,7.69
2023-11-15T02:36:51.768Z,7.68
2023-11-15T02:39:20.676Z,7.70
2023-11-15T02:41:48.652Z,7.68
2023-11-15T02:44:16.238Z,7.61
2023-11-15T02:46:43.381Z,7.58
2023-11-15T02:49:11.356Z,7.59
2023-11-15T02:51:40.317Z,7.70
2023-11-15T02:54:07.481Z,7.65
2023-11-15T02:56:34.860Z,7.57
2023-11-15T02:59:02.420Z,7.53
2023-11-15T03:01:29.484Z,7.58
2023-11-15T03:03:58.421Z,7.48
2023-11-15T03:06:26.762Z,7.54
2023-11-15T03:08:55.660Z,7.43
2023-11-15T03:11:23.888Z,7.39
2023-11-15T03:13:51.258Z,7.38
2023-11-15T03:16:18.883Z,7.37
2023-11-15T03:18:47.768Z,7.32
2023-11-15T03:21:15.468Z,7.23
2023-11-15T03:23:42.618Z,7.12
2023-11-15T03:26:11.080Z,7.04
2023-11-15T03:28:38.344Z,6.94
2023-11-15T03:31:07.148Z,6.88
2023-11-15T03:33:35.660Z,6.82
2023-11-15T03:36:02.913Z,6.84
2023-11-15T03:38:31.729Z,6.83
2023-11-15T03:41:01.814Z,6.73
2023-11-15T03:43:28.881Z,6.68
2023-11-15T03:45:57.308Z,6.71
2023-11-15T03:48:24.767Z,6.50
2023-11-15T03:50:54.641Z,6.48
2023-11-15T03:53:22.892Z,6.42
2023-11-15T03:55:53.997Z,6.31
2023-11-15T03:58:24.267Z,6.28
2023-11-15T04:00:52.146Z,6.26
2023-11-15T04:03:23.224Z,6.24
2023-11-15T04:05:51.047Z,6.27
2023-11-15T04:08:18.815Z,6.32
2023-11-15T04:10:49.687Z,6.26
2023-11-15T04:13:18.833Z,6.46
2023-11-15T04:15:46.239Z,6.46
2023-11-15T04:18:13.507Z,6.47
2023-11-15T04:20:42.005Z,6.51
2023-11-15T04:23:09.433Z,6.50
2023-11-15T04:25:37.667Z,6.43
2023-11-15T04:28:05.899Z,6.38
2023-11-15T04:30:34.664Z,6.29
2023-11-15T04:33:02.320Z,6.25
2023-11-15T04:35:30.012Z,6.20
2023-11-15T04:37:57.896Z,6.21
2023-11-15T04:40:28.023Z,6.25
2023-11-15T04:42:55.689Z,6.26
2023-11-15T04:45:24.009Z,6.21
2023-11-15T04:47:51.256Z,6.15
2023-11-15T04:50:18.475Z,6.08
2023-11-15T04:52:48.130Z,6.09
2023-11-15T04:55:15.783Z,6.11
2023-11-15T04:57:42.809Z,6.07
2023-11-15T05:00:12.527Z,6.04
2023-11-15T05:02:59.572Z,6.00
2023-11-15T05:05:30.645Z,5.99
2023-11-15T05:07:58.825Z,5.95
2023-11-15T05:10:27.205Z,5.91
2023-11-15T05:12:54.585Z,5.84
2023-11-15T05:15:21.746Z,5.78
2023-11-15T05:17:49.350Z,5.76
2023-11-15T05:20:19.769Z,5.71
2023-11-15T05:22:47.982Z,5.74
2023-11-15T05:25:17.472Z,5.74
2023-11-15T05:27:46.387Z,5.72
2023-11-15T05:30:17.138Z,5.66
2023-11-15T05:32:44.830Z,5.63
2023-11-15T05:35:14.084Z,5.57
2023-11-15T05:37:43.584Z,5.60
2023-11-15T05:40:14.306Z,5.59
2023-11-15T05:42:43.105Z,5.57
2023-11-15T05:45:13.990Z,5.56
2023-11-15T05:47:41.409Z,5.48
2023-11-15T05:50:10.820Z,5.56
2023-11-15T05:52:39.237Z,5.55
2023-11-15T05:55:08.479Z,5.47
2023-11-15T05:57:36.073Z,5.46
2023-11-15T06:00:19.550Z,5.47
2023-11-15T06:02:49.712Z,5.54
2023-11-15T06:05:18.227Z,5.58
2023-11-15T06:07:46.479Z,5.59
2023-11-15T06:10:15.981Z,5.68
2023-11-15T06:12:44.227Z,5.65
2023-11-15T06:15:12.505Z,5.70
2023-11-15T06:17:41.273Z,5.75
2023-11-15T06:20:18.812Z,5.84
2023-11-15T06:22:47.916Z,5.98
2023-11-15T06:25:20.052Z,6.20
2023-11-15T06:27:47.629Z,6.60
2023-11-15T06:30:15.161Z,6.85
2023-11-15T06:32:42.455Z,6.99
2023-11-15T06:35:10.212Z,7.21
2023-11-15T06:37:37.962Z,7.34
2023-11-15T06:40:09.082Z,7.42
2023-11-15T06:42:37.323Z,7.61
2023-11-15T06:45:05.736Z,7.73
2023-11-15T06:47:34.279Z,7.95
2023-11-15T06:50:05.698Z,8.06
2023-11-15T06:52:33.866Z,8.08
2023-11-15T06:55:04.635Z,8.25
2023-11-15T06:57:32.283Z,8.35
2023-11-15T07:00:00.002Z,8.43
2023-11-15T07:02:28.278Z,8.52
2023-11-15T07:04:56.860Z,8.61
2023-11-15T07:07:23.948Z,8.64
2023-11-15T07:09:51.504Z,8.76
2023-11-15T07:12:21.965Z,8.82
2023-11-15T07:14:49.509Z,8.92
2023-11-15T07:17:19.362Z,9.11
2023-11-15T07:19:50.184Z,9.18
2023-11-15T07:22:17.580Z,9.30
2023-11-15T07:24:44.734Z,9.39
2023-11-15T07:27:11.849Z,9.51
2023-11-15T07:29:39.317Z,9.58
2023-11-15T07:32:08.818Z,9.70
2023-11-15T07:34:37.180Z,9.77
2023-11-15T07:37:05.228Z,9.78
2023-11-15T07:39:32.338Z,9.81
2023-11-15T07:42:00.579Z,9.84
2023-11-15T07:44:31.357Z,9.90
2023-11-15T07:47:00.210Z,9.95
2023-11-15T07:49:30.121Z,9.97
2023-11-15T07:51:57.268Z,10.01
2023-11-15T07:54:25.451Z,10.14
2023-11-15T07:56:53.944Z,10.28
2023-11-15T07:59:23.142Z,10.30
2023-11-15T08:01:50.414Z,10.39
2023-11-15T08:04:18.566Z,10.50
2023-11-15T08:06:46.938Z,10.57
2023-11-15T08:09:28.188Z,10.62
2023-11-15T08:11:57.062Z,10.76
2023-11-15T08:14:26.374Z,10.79
2023-11-15T08:16:55.701Z,10.89
2023-11-15T08:19:24.064Z,11.00
2023-11-15T08:21:53.265Z,11.06
2023-11-15T08:24:23.795Z,11.12
2023-11-15T08:26:54.594Z,11.22
2023-11-15T08:29:23.183Z,11.26
2023-11-15T08:31:52.650Z,11.27
2023-11-15T08:34:23.841Z,11.33
2023-11-15T08:36:52.332Z,11.42
2023-11-15T08:39:23.338Z,11.46
2023-11-15T08:41:52.214Z,11.56
2023-11-15T08:44:19.635Z,11.74
2023-11-15T08:46:49.249Z,12.02
2023-11-15T08:49:19.547Z,12.12
2023-11-15T08:51:51.585Z,12.27
2023-11-15T08:54:19.848Z,12.28
2023-11-15T08:56:48.224Z,12.55
2023-11-15T08:59:20.172Z,12.81
2023-11-15T09:01:48.721Z,12.89
2023-11-15T09:04:17.208Z,12.79
2023-11-15T09:06:49.696Z,12.49
2023-11-15T09:09:18.643Z,12.36
2023-11-15T09:11:49.063Z,12.27
2023-11-15T09:14:16.431Z,12.35
2023-11-15T09:16:46.128Z,12.38
2023-11-15T09:19:22.395Z,12.27
2023-11-15T09:21:50.715Z,12.12
2023-11-15T09:24:23.899Z,12.03
2023-11-15T09:26:52.463Z,12.20
2023-11-15T09:29:20.708Z,12.12
2023-11-15T09:31:48.601Z,12.15
2023-11-15T09:34:17.772Z,12.13
2023-11-15T09:36:49.075Z,12.03
2023-11-15T09:39:17.661Z,12.11
2023-11-15T09:41:54.934Z,12.13
2023-11-15T09:44:24.964Z,12.09
2023-11-15T09:46:59.812Z,12.14
2023-11-15T09:49:27.567Z,12.11
2023-11-15T09:51:55.332Z,12.12
2023-11-15T09:54:24.529Z,12.08
2023-11-15T09:56:52.698Z,12.14
2023-11-15T09:59:20.474Z,12.27
2023-11-15T10:01:50.652Z,12.24
2023-11-15T10:04:22.476Z,12.31
2023-11-15T10:07:06.149Z,12.19
2023-11-15T10:09:41.569Z,12.15
2023-11-15T10:12:10.349Z,12.14
2023-11-15T10:14:54.271Z,12.22
2023-11-15T10:17:39.637Z,12.32
2023-11-15T10:20:19.751Z,12.33
2023-11-15T10:22:48.515Z,12.28
2023-11-15T10:25:16.626Z,12.27
2023-11-15T10:27:44.330Z,12.35
2023-11-15T10:30:17.449Z,12.45
2023-11-15T10:32:46.716Z,12.38
2023-11-15T10:35:30.367Z,12.29
2023-11-15T10:37:58.670Z,12.32
2023-11-15T10:40:31.303Z,12.29
2023-11-15T10:43:00.146Z,12.36
2023-11-15T10:45:29.487Z,12.35
2023-11-15T10:48:11.353Z,12.17
2023-11-15T10:50:43.682Z,12.31
2023-11-15T10:53:13.114Z,12.20
2023-11-15T10:55:41.613Z,12.13
2023-11-15T10:58:12.516Z,12.13
2023-11-15T11:00:44.764Z,12.20
2023-11-15T11:03:25.674Z,12.13
2023-11-15T11:06:00.485Z,11.98
2023-11-15T11:08:38.216Z,12.10
2023-11-15T11:11:11.995Z,12.15
2023-11-15T11:13:42.256Z,12.12
2023-11-15T11:16:41.672Z,12.19
2023-11-15T11:19:28.504Z,12.09
2023-11-15T11:22:05.650Z,12.16
2023-11-15T11:25:00.537Z,12.31
2023-11-15T11:27:31.132Z,12.44
2023-11-15T11:30:01.815Z,12.45
2023-11-15T11:32:33.408Z,12.52
2023-11-15T11:35:01.767Z,12.56
2023-11-15T11:38:05.431Z,12.54
2023-11-15T11:40:35.339Z,12.31
2023-11-15T11:43:16.260Z,12.47
2023-11-15T11:45:48.192Z,12.56
2023-11-15T11:48:27.229Z,12.59
2023-11-15T11:51:05.036Z,12.79
2023-11-15T11:53:40.424Z,12.80
2023-11-15T11:56:12.183Z,12.68
2023-11-15T11:58:40.605Z,12.50
2023-11-15T12:01:12.576Z,12.50
2023-11-15T12:03:47.761Z,12.45
2023-11-15T12:06:15.766Z,12.56
2023-11-15T12:08:52.700Z,12.72
2023-11-15T12:11:25.180Z,12.76
2023-11-15T12:13:53.977Z,12.59
2023-11-15T12:16:26.954Z,12.52
2023-11-15T12:19:07.035Z,12.54
2023-11-15T12:21:39.571Z,12.69
2023-11-15T12:24:07.889Z,12.82
2023-11-15T12:26:44.504Z,13.04
2023-11-15T12:29:27.794Z,13.11
2023-11-15T12:31:58.236Z,13.03
2023-11-15T12:34:28.767Z,12.84
2023-11-15T12:36:57.093Z,12.54
2023-11-15T12:39:24.759Z,12.47
2023-11-15T12:41:54.756Z,12.42
2023-11-15T12:44:22.714Z,12.50
2023-11-15T12:46:52.439Z,12.59
2023-11-15T12:49:25.127Z,12.74
2023-11-15T12:51:55.684Z,12.85
2023-11-15T12:54:23.734Z,12.93
2023-11-15T12:57:14.168Z,13.07
2023-11-15T12:59:49.320Z,12.83
2023-11-15T13:02:32.074Z,12.79
2023-11-15T13:05:04.720Z,12.78
2023-11-15T13:07:34.475Z,12.86
2023-11-15T13:10:05.116Z,12.89
2023-11-15T13:12:33.881Z,12.93
2023-11-15T13:15:02.147Z,12.89
2023-11-15T13:17:30.558Z,12.91
2023-11-15T13:20:01.713Z,12.61
2023-11-15T13:22:31.694Z,12.38
2023-11-15T13:24:59.558Z,12.37
2023-11-15T13:27:27.509Z,12.28
2023-11-15T13:29:57.926Z,12.32
2023-11-15T13:32:26.498Z,12.30
2023-11-15T13:34:55.425Z,12.29
2023-11-15T13:37:25.917Z,12.24
2023-11-15T13:39:53.524Z,12.24
2023-11-15T13:42:21.326Z,12.10
2023-11-15T13:44:49.245Z,12.17
2023-11-15T13:47:17.232Z,12.13
2023-11-15T13:49:47.891Z,12.24
2023-11-15T13:52:21.255Z,12.23
2023-11-15T13:54:48.951Z,12.17
2023-11-15T13:57:18.909Z,12.17
2023-11-15T13:59:46.757Z,12.13
2023-11-15T14:02:14.678Z,12.15
2023-11-15T14:04:42.791Z,12.13
2023-11-15T14:07:11.856Z,12.12
2023-11-15T14:09:39.780Z,12.14
2023-11-15T14:12:08.105Z,12.19
2023-11-15T14:14:40.164Z,12.26
2023-11-15T14:17:08.440Z,12.17
2023-11-15T14:19:38.072Z,12.19
2023-11-15T14:22:07.977Z,12.16
2023-11-15T14:24:36.293Z,12.11
2023-11-15T14:27:05.208Z,12.07
2023-11-15T14:29:32.933Z,11.98
2023-11-15T14:32:02.063Z,11.86
2023-11-15T14:34:30.055Z,11.89
2023-11-15T14:36:58.350Z,11.75
2023-11-15T14:39:27.955Z,11.80
2023-11-15T14:41:55.747Z,11.72
2023-11-15T14:44:25.359Z,11.71
2023-11-15T14:46:54.496Z,11.67
2023-11-15T14:49:22.246Z,11.63
2023-11-15T14:51:59.846Z,11.57
2023-11-15T14:54:31.147Z,11.59
2023-11-15T14:56:59.589Z,11.55
2023-11-15T14:59:28.377Z,11.50
2023-11-15T15:01:55.500Z,11.55
2023-11-15T15:04:24.528Z,11.50
2023-11-15T15:06:52.313Z,11.46
2023-11-15T15:09:20.234Z,11.45
2023-11-15T15:11:47.768Z,11.43
2023-11-15T15:14:17.050Z,11.43
2023-11-15T15:16:44.501Z,11.45
2023-11-15T15:19:11.882Z,11.50
2023-11-15T15:21:42.644Z,11.43
2023-11-15T15:24:10.570Z,11.38
2023-11-15T15:26:37.662Z,11.42
2023-11-15T15:29:07.820Z,11.36
2023-11-15T15:31:41.661Z,11.33
2023-11-15T15:34:09.905Z,11.23
2023-11-15T15:36:38.319Z,11.18
2023-11-15T15:39:08.166Z,11.25
2023-11-15T15:41:36.061Z,11.29
2023-11-15T15:44:03.834Z,11.22
2023-11-15T15:46:34.147Z,11.20
2023-11-15T15:49:02.011Z,11.19
2023-11-15T15:51:29.455Z,11.19
2023-11-15T15:53:59.970Z,11.22
2023-11-15T15:56:30.559Z,11.14
2023-11-15T15:58:57.710Z,11.13
2023-11-15T16:01:29.159Z,11.09
2023-11-15T16:03:56.747Z,11.03
2023-11-15T16:06:24.366Z,11.16
2023-11-15T16:08:56.953Z,11.13
2023-11-15T16:11:24.885Z,11.12
2023-11-15T16:13:52.081Z,11.11
2023-11-15T16:16:20.455Z,11.03
2023-11-15T16:18:47.922Z,11.00
2023-11-15T16:21:15.292Z,11.05
2023-11-15T16:23:46.274Z,11.08
2023-11-15T16:26:16.635Z,11.00
2023-11-15T16:28:45.664Z,10.94
2023-11-15T16:31:20.128Z,10.89
2023-11-15T16:33:50.341Z,10.90
2023-11-15T16:36:17.900Z,10.83
2023-11-15T16:38:47.601Z,10.80
2023-11-15T16:41:16.938Z,10.80
2023-11-15T16:43:44.035Z,10.76
2023-11-15T16:46:12.847Z,10.69
2023-11-15T16:48:41.784Z,10.73
2023-11-15T16:51:11.628Z,10.74
2023-11-15T16:53:41.953Z,10.86
2023-11-15T16:56:11.459Z,10.76
2023-11-15T16:58:39.383Z,10.64
2023-11-15T17:01:09.054Z,10.77
2023-11-15T17:03:36.389Z,10.73
2023-11-15T17:06:04.830Z,10.70
2023-11-15T17:08:34.220Z,10.63
2023-11-15T17:11:01.854Z,10.77
2023-11-15T17:13:29.034Z,10.71
2023-11-15T17:15:56.426Z,10.76
2023-11-15T17:18:23.636Z,10.80
2023-11-15T17:20:51.323Z,10.71
2023-11-15T17:23:20.644Z,10.75
2023-11-15T17:25:52.495Z,10.71
2023-11-15T17:28:20.609Z,10.74
2023-11-15T17:30:47.958Z,10.59
2023-11-15T17:33:15.138Z,10.46
2023-11-15T17:35:43.549Z,10.34
2023-11-15T17:38:10.623Z,10.25
2023-11-15T17:40:37.673Z,10.29
2023-11-15T17:43:08.156Z,10.22
2023-11-15T17:45:35.298Z,10.12
2023-11-15T17:48:02.521Z,10.06
2023-11-15T17:50:31.455Z,10.08
2023-11-15T17:52:59.440Z,10.09
2023-11-15T17:55:29.515Z,10.22
2023-11-15T17:57:57.641Z,10.17
2023-11-15T18:00:24.779Z,10.18
2023-11-15T18:02:52.236Z,10.12
2023-11-15T18:05:20.067Z,10.20
2023-11-15T18:07:47.214Z,10.10
2023-11-15T18:10:15.929Z,10.07
2023-11-15T18:12:43.859Z,9.98
2023-11-15T18:15:17.000Z,9.95
2023-11-15T18:17:44.904Z,9.94
2023-11-15T18:20:14.231Z,9.84
2023-11-15T18:22:46.434Z,9.79
2023-11-15T18:25:20.158Z,9.69
2023-11-15T18:27:50.018Z,9.69
2023-11-15T18:30:19.056Z,9.76
2023-11-15T18:32:52.191Z,9.73
2023-11-15T18:35:20.054Z,9.81
2023-11-15T18:37:47.900Z,9.87
2023-11-15T18:40:18.466Z,9.84
2023-11-15T18:42:46.004Z,9.72
2023-11-15T18:45:13.454Z,9.69
2023-11-15T18:47:42.405Z,9.61
2023-11-15T18:50:13.442Z,9.58
2023-11-15T18:52:44.563Z,9.51
2023-11-15T18:55:15.157Z,9.55
2023-11-15T18:57:45.663Z,9.44
2023-11-15T19:00:16.597Z,9.44
2023-11-15T19:02:46.150Z,9.51
2023-11-15T19:05:17.414Z,9.50
2023-11-15T19:07:45.837Z,9.57
2023-11-15T19:10:15.079Z,9.50
2023-11-15T19:12:45.297Z,9.51
2023-11-15T19:15:13.102Z,9.48
2023-11-15T19:17:49.806Z,9.52
2023-11-15T19:20:19.552Z,9.45
2023-11-15T19:22:47.776Z,9.44
2023-11-15T19:25:16.154Z,9.50
2023-11-15T19:27:45.501Z,9.50
2023-11-15T19:30:13.572Z,9.56
2023-11-15T19:32:41.494Z,9.57
2023-11-15T19:35:11.946Z,9.58
2023-11-15T19:37:44.473Z,9.62
2023-11-15T19:40:17.339Z,9.61
2023-11-15T19:42:44.486Z,9.58
2023-11-15T19:45:12.888Z,9.39
2023-11-15T19:48:00.095Z,9.15
2023-11-15T19:50:33.312Z,9.11
2023-11-15T19:53:04.392Z,8.98
2023-11-15T19:55:32.342Z,8.87
2023-11-15T19:57:59.843Z,8.81
2023-11-15T20:00:26.972Z,8.73
2023-11-15T20:02:54.433Z,8.73
2023-11-15T20:05:22.789Z,8.67
2023-11-15T20:07:50.926Z,8.63
2023-11-15T20:10:19.989Z,8.56
2023-11-15T20:12:49.493Z,8.55
2023-11-15T20:15:16.699Z,8.42
2023-11-15T20:17:46.196Z,8.39
2023-11-15T20:20:16.150Z,8.45
2023-11-15T20:22:51.815Z,8.45
2023-11-15T20:25:20.578Z,8.50
2023-11-15T20:27:48.187Z,8.66
2023-11-15T20:30:16.050Z,8.72
2023-11-15T20:32:43.392Z,8.72
2023-11-15T20:35:12.220Z,8.80
2023-11-15T20:37:39.434Z,8.81
2023-11-15T20:40:08.863Z,8.89
2023-11-15T20:42:36.521Z,8.83
2023-11-15T20:45:04.036Z,8.77
2023-11-15T20:47:51.139Z,8.84
2023-11-15T20:50:21.461Z,8.74
2023-11-15T20:52:49.832Z,8.71
2023-11-15T20:55:25.548Z,8.64
2023-11-15T20:57:53.257Z,8.66
2023-11-15T21:00:27.866Z,8.61
2023-11-15T21:02:57.375Z,8.61
2023-11-15T21:05:26.296Z,8.53
2023-11-15T21:07:53.804Z,8.57
2023-11-15T21:10:21.646Z,8.52
2023-11-15T21:12:48.657Z,8.43
2023-11-15T21:15:16.846Z,8.43
2023-11-15T21:17:45.768Z,8.33
2023-11-15T21:20:14.748Z,8.19
2023-11-15T21:22:45.832Z,8.09
2023-11-15T21:25:14.157Z,8.08
2023-11-15T21:27:42.722Z,8.00
2023-11-15T21:30:11.886Z,7.98
2023-11-15T21:32:43.569Z,7.89
2023-11-15T21:35:12.234Z,7.79
2023-11-15T21:37:44.035Z,7.71
2023-11-15T21:40:16.674Z,7.72
2023-11-15T21:42:45.692Z,7.65
2023-11-15T21:45:24.296Z,7.59
2023-11-15T21:47:51.810Z,7.57
2023-11-15T21:50:21.736Z,7.46
2023-11-15T21:52:50.635Z,7.38
2023-11-15T21:55:18.631Z,7.32
2023-11-15T21:57:47.239Z,7.27
2023-11-15T22:00:17.217Z,7.21
2023-11-15T22:02:44.850Z,7.23
2023-11-15T22:05:12.028Z,7.25
2023-11-15T22:07:40.559Z,7.23
2023-11-15T22:10:13.596Z,7.14
2023-11-15T22:12:42.654Z,7.03
2023-11-15T22:15:20.114Z,7.08
2023-11-15T22:17:49.225Z,7.07
2023-11-15T22:20:17.227Z,7.13
2023-11-15T22:22:45.740Z,7.12
2023-11-15T22:25:20.763Z,7.10
2023-11-15T22:27:48.290Z,7.04
2023-11-15T22:30:16.021Z,7.11
2023-11-15T22:32:45.598Z,7.03
2023-11-15T22:35:12.952Z,7.02
2023-11-15T22:37:40.011Z,7.04
2023-11-15T22:40:07.568Z,7.04
2023-11-15T22:42:35.058Z,7.01
2023-11-15T22:45:03.169Z,7.04
2023-11-15T22:47:31.494Z,7.07
2023-11-15T22:49:59.653Z,7.08
2023-11-15T22:52:28.329Z,7.05
2023-11-15T22:54:55.455Z,7.08
2023-11-15T22:57:23.334Z,7.07
2023-11-15T22:59:52.320Z,7.05
2023-11-15T23:02:20.429Z,6.96
2023-11-15T23:04:48.117Z,7.01
2023-11-15T23:07:21.572Z,7.11
2023-11-15T23:09:50.542Z,7.04
2023-11-15T23:12:24.015Z,7.01
2023-11-15T23:14:51.644Z,7.04
2023-11-15T23:17:19.516Z,7.05
2023-11-15T23:19:50.429Z,7.09
2023-11-15T23:22:17.828Z,7.01
2023-11-15T23:24:44.912Z,6.96
2023-11-15T23:27:12.097Z,7.01
2023-11-15T23:29:39.532Z,7.04
2023-11-15T23:32:06.991Z,6.97
2023-11-15T23:34:34.185Z,6.95
2023-11-15T23:37:01.543Z,6.97
2023-11-15T23:39:28.656Z,7.00
2023-11-15T23:41:56.313Z,7.08
2023-11-15T23:44:23.756Z,7.18
2023-11-15T23:46:52.892Z,7.16
2023-11-15T23:49:22.274Z,7.13
2023-11-15T23:51:49.721Z,7.16
2023-11-15T23:54:19.253Z,7.17
2023-11-15T23:56:46.416Z,7.23
2023-11-15T23:59:16.007Z,7.21
